Terminal Aerodrome Forecast
Issued by NWS

Home | Current Version | Previous Version | Text Only | Print | Product List | Glossary On
Versions: 1 2 3 4 5 6 7 8 9 10 11 12 13
000
FTUS41 KCAR 031758
TAFPQI
TAF
KPQI 031758Z 0318/0418 28008KT P6SM SKC
     FM032100 22006KT P6SM BKN250
     FM040200 17006KT 3SM -SN OVC030
     FM040500 16010KT 1SM -SN OVC010
     FM040900 19009KT 4SM -SN OVC007
     FM041200 20009KT P6SM OVC015
     FM041500 21010G20KT P6SM OVC025
      AMD LTD TO CLD VIS AND WIND=

USA.gov is the U.S. government's official web portal to all federal, state and local government web resources and services.